Time;durP1;ratioP1;P1;durP2;ratioP2;P2;SDS_P1;SDS_P2;PMS_P1;PMS_P2;Temp;Humidity;BMP_temperature;BMP_pressure;BME280_temperature;BME280_humidity;BME280_pressure;Samples;Min_cycle;Max_cycle;Signal;HPM_P1;HPM_P2
2023/01/25 00:00:37;;;;;;;56.70;51.30;;;;;;;-0.48;100.00;103619.09;5091333;28;20623;-85
2023/01/25 00:03:02;;;;;;;55.67;50.33;;;;;;;-0.50;100.00;103611.16;5091697;28;20429;-85
2023/01/25 00:05:28;;;;;;;56.60;51.20;;;;;;;-0.51;100.00;103607.63;5094876;28;20032;-85
2023/01/25 00:07:53;;;;;;;55.63;50.30;;;;;;;-0.51;100.00;103607.63;5095282;28;20040;-85
2023/01/25 00:10:19;;;;;;;56.43;51.03;;;;;;;-0.53;100.00;103612.19;5079091;28;20033;-85
2023/01/25 00:12:44;;;;;;;55.47;50.13;;;;;;;-0.55;100.00;103608.69;5093860;28;20111;-85
2023/01/25 00:15:10;;;;;;;54.83;49.53;;;;;;;-0.60;100.00;103602.75;5093321;28;20110;-85
2023/01/25 00:17:35;;;;;;;55.00;49.70;;;;;;;-0.57;100.00;103605.25;5091645;28;20032;-85
2023/01/25 00:20:01;;;;;;;54.10;48.90;;;;;;;-0.57;100.00;103605.25;5096439;28;20099;-85
2023/01/25 00:22:26;;;;;;;55.70;50.30;;;;;;;-0.55;100.00;103602.53;5072469;28;21855;-85
2023/01/25 00:24:52;;;;;;;54.67;49.47;;;;;;;-0.57;100.00;103607.94;5095055;28;20031;-85
2023/01/25 00:27:17;;;;;;;54.37;49.07;;;;;;;-0.60;100.00;103615.19;5072198;28;20032;-85
2023/01/25 00:29:42;;;;;;;58.70;52.90;;;;;;;-0.61;100.00;103605.44;5101090;28;20032;-85
2023/01/25 00:32:14;;;;;;;60.97;54.97;;;;;;;-0.62;100.00;103601.94;5098634;28;20036;-85
2023/01/25 00:34:45;;;;;;;60.70;54.73;;;;;;;-0.63;100.00;103594.88;5091418;28;20020;-85
2023/01/25 00:37:16;;;;;;;60.73;54.63;;;;;;;-0.60;100.00;103594.75;5095581;28;20423;-85
2023/01/25 00:39:41;;;;;;;57.33;51.73;;;;;;;-0.63;100.00;103594.88;5087333;28;20367;-85
2023/01/25 00:42:10;;;;;;;56.37;50.97;;;;;;;-0.57;100.00;103599.03;5097081;27;20809;-85
2023/01/25 00:44:35;;;;;;;56.53;51.13;;;;;;;-0.66;100.00;103595.03;5097622;28;20368;-85
2023/01/25 00:47:01;;;;;;;55.83;50.33;;;;;;;-0.59;100.00;103585.81;5094130;28;20312;-85
2023/01/25 00:49:26;;;;;;;58.33;52.57;;;;;;;-0.58;100.00;103586.69;5093914;28;20030;-86
2023/01/25 00:51:54;;;;;;;58.60;52.80;;;;;;;-0.59;100.00;103599.13;5076369;28;20090;-86
2023/01/25 00:54:19;;;;;;;58.63;52.87;;;;;;;-0.59;100.00;103588.47;5095192;28;20032;-85
2023/01/25 00:56:45;;;;;;;58.57;52.77;;;;;;;-0.55;100.00;103590.06;5088821;28;20290;-85
2023/01/25 00:59:12;;;;;;;57.67;52.07;;;;;;;-0.57;100.00;103588.41;5097022;28;20032;-85
2023/01/25 01:01:40;;;;;;;59.03;53.17;;;;;;;-0.56;100.00;103596.34;5095321;28;20027;-85
2023/01/25 01:04:05;;;;;;;60.40;54.40;;;;;;;-0.61;100.00;103584.16;5096046;28;20406;-85
2023/01/25 01:06:30;;;;;;;60.30;54.30;;;;;;;-0.58;100.00;103584.03;5089421;28;20384;-85
2023/01/25 01:08:56;;;;;;;59.23;53.43;;;;;;;-0.61;100.00;103585.03;5099162;28;20027;-85
2023/01/25 01:11:21;;;;;;;57.90;52.20;;;;;;;-0.56;100.00;103584.81;5094276;28;20028;-85
2023/01/25 01:13:46;;;;;;;59.20;53.37;;;;;;;-0.58;100.00;103584.88;5090752;28;20043;-85
2023/01/25 01:16:12;;;;;;;59.20;53.40;;;;;;;-0.54;100.00;103582.94;5079632;28;20024;-85
2023/01/25 01:18:41;;;;;;;60.60;54.63;;;;;;;-0.54;100.00;103589.13;5081497;28;20111;-85
2023/01/25 01:21:07;;;;;;;57.57;51.97;;;;;;;-0.53;100.00;103584.66;5098078;28;20035;-85
2023/01/25 01:23:34;;;;;;;57.23;51.60;;;;;;;-0.50;100.00;103576.53;5102141;28;20301;-85
2023/01/25 01:26:00;;;;;;;59.23;53.33;;;;;;;-0.51;100.00;103582.81;5092132;28;20285;-85
2023/01/25 01:28:27;;;;;;;59.57;53.77;;;;;;;-0.58;100.00;103579.56;5091156;28;20507;-85
2023/01/25 01:30:53;;;;;;;59.87;54.00;;;;;;;-0.63;100.00;103576.22;5093848;28;20300;-81
2023/01/25 01:33:18;;;;;;;59.63;53.73;;;;;;;-0.59;100.00;103580.47;5087691;28;20330;-81
2023/01/25 01:35:45;;;;;;;59.67;53.97;;;;;;;-0.55;100.00;103576.75;5068675;28;20032;-81
2023/01/25 01:38:11;;;;;;;57.83;52.13;;;;;;;-0.48;100.00;103572.00;5085102;28;20029;-81
2023/01/25 01:40:36;;;;;;;58.37;52.60;;;;;;;-0.53;100.00;103574.88;5086035;28;20295;-81
2023/01/25 01:43:05;;;;;;;60.13;54.20;;;;;;;-0.61;100.00;103581.47;5068354;28;20024;-81
2023/01/25 01:45:43;;;;;;;61.37;55.30;;;;;;;-0.62;100.00;103583.28;5084949;28;20025;-81
2023/01/25 01:48:33;;;;;;;60.70;54.50;;;;;;;-0.68;100.00;103579.13;5073382;28;20278;-81
2023/01/25 01:51:37;;;;;;;62.30;55.90;;;;;;;-0.70;100.00;103578.31;5083947;28;20293;-81
2023/01/25 01:54:11;;;;;;;62.77;56.37;;;;;;;-0.73;100.00;103574.94;5086306;28;20286;-80
2023/01/25 01:56:45;;;;;;;63.22;56.80;;;;;;;-0.74;100.00;103578.53;5085494;28;20274;-80
2023/01/25 01:59:11;;;;;;;63.47;57.03;;;;;;;-0.77;100.00;103579.53;5086802;28;20046;-85
2023/01/25 02:01:37;;;;;;;65.30;58.60;;;;;;;-0.84;100.00;103570.09;5100430;28;20040;-85
2023/01/25 02:04:05;;;;;;;60.90;54.67;;;;;;;-0.82;100.00;103578.88;5099292;28;20290;-85
2023/01/25 02:06:47;;;;;;;62.63;56.23;;;;;;;-0.80;100.00;103571.69;5098045;28;20054;-85
2023/01/25 02:09:16;;;;;;;63.40;56.83;;;;;;;-0.83;100.00;103565.63;5099729;28;20296;-85
2023/01/25 02:11:42;;;;;;;64.87;58.17;;;;;;;-0.83;100.00;103570.97;5093957;28;20648;-85
2023/01/25 02:14:08;;;;;;;66.20;59.40;;;;;;;-0.87;100.00;103571.09;5091729;28;20304;-85
2023/01/25 02:16:34;;;;;;;61.90;55.57;;;;;;;-0.87;100.00;103571.09;5094384;28;20107;-85
2023/01/25 02:19:02;;;;;;;65.07;58.37;;;;;;;-0.88;100.00;103579.16;5094181;28;20522;-85
2023/01/25 02:21:34;;;;;;;63.63;57.13;;;;;;;-0.94;100.00;103568.78;5082881;28;20032;-85
2023/01/25 02:24:25;;;;;;;62.33;56.07;;;;;;;-0.89;100.00;103567.63;5091708;28;20934;-85
2023/01/25 02:26:51;;;;;;;65.37;58.77;;;;;;;-0.90;100.00;103555.28;5094204;28;20282;-85
2023/01/25 02:29:19;;;;;;;63.07;56.63;;;;;;;-0.88;100.00;103548.06;5099634;28;20304;-85
2023/01/25 02:31:46;;;;;;;64.97;58.27;;;;;;;-0.90;100.00;103549.97;5098141;28;20020;-85
2023/01/25 02:34:11;;;;;;;68.23;61.13;;;;;;;-0.91;100.00;103553.56;5099013;28;20710;-85
2023/01/25 02:36:37;;;;;;;66.10;59.17;;;;;;;-0.92;100.00;103550.97;5095729;28;20392;-85
2023/01/25 02:39:14;;;;;;;67.03;59.87;;;;;;;-0.95;100.00;103551.97;5103622;28;20028;-85
2023/01/25 02:41:41;;;;;;;65.90;59.10;;;;;;;-0.96;100.00;103555.56;5100821;28;20032;-85
2023/01/25 02:44:19;;;;;;;65.97;59.27;;;;;;;-1.00;100.00;103543.31;5098143;28;20646;-85
2023/01/25 02:46:44;;;;;;;67.60;60.70;;;;;;;-0.99;100.00;103536.19;5094856;28;20298;-85
2023/01/25 02:49:10;;;;;;;68.00;60.80;;;;;;;-1.00;100.00;103539.81;5108271;27;20306;-85
2023/01/25 02:51:39;;;;;;;70.70;63.30;;;;;;;-0.99;100.00;103539.72;5101855;28;20066;-85
2023/01/25 02:54:07;;;;;;;69.57;62.27;;;;;;;-0.99;100.00;103539.72;5093004;28;20456;-85
2023/01/25 02:56:32;;;;;;;71.53;63.93;;;;;;;-0.99;100.00;103546.81;5078293;28;20689;-85
2023/01/25 02:58:58;;;;;;;71.07;63.43;;;;;;;-0.97;100.00;103540.50;5079961;28;20286;-85
2023/01/25 03:01:24;;;;;;;71.43;63.73;;;;;;;-0.97;100.00;103540.50;5099467;28;20030;-85
2023/01/25 03:03:49;;;;;;;73.97;65.93;;;;;;;-1.00;100.00;103539.81;5099535;28;20020;-85
2023/01/25 03:06:15;;;;;;;75.63;67.50;;;;;;;-0.95;100.00;103538.66;5091130;28;20103;-85
2023/01/25 03:08:40;;;;;;;74.77;66.57;;;;;;;-1.04;100.00;103537.25;5094922;28;20028;-84
2023/01/25 03:11:06;;;;;;;75.00;66.47;;;;;;;-0.99;100.00;103537.06;5086305;28;20477;-85
2023/01/25 03:13:35;;;;;;;77.80;67.97;;;;;;;-0.91;100.00;103537.59;5095538;28;20073;-85
2023/01/25 03:16:06;;;;;;;76.87;68.23;;;;;;;-0.88;100.00;103528.59;5108025;27;20025;-85
2023/01/25 03:18:32;;;;;;;77.30;68.60;;;;;;;-0.81;100.00;103531.84;5090208;28;20277;-85
2023/01/25 03:21:13;;;;;;;76.10;67.77;;;;;;;-0.73;100.00;103533.19;5094994;28;20321;-81
2023/01/25 03:23:39;;;;;;;75.70;67.37;;;;;;;-0.85;100.00;103526.63;5080140;28;20669;-81
2023/01/25 03:26:05;;;;;;;76.53;68.17;;;;;;;-0.92;100.00;103522.53;5083067;28;20305;-81
2023/01/25 03:28:30;;;;;;;74.00;65.83;;;;;;;-0.96;100.00;103512.97;5083608;28;20305;-81
2023/01/25 03:30:55;;;;;;;72.40;64.43;;;;;;;-0.98;100.00;103514.84;5077414;28;20032;-81
2023/01/25 03:33:21;;;;;;;75.37;67.27;;;;;;;-0.88;100.00;103501.97;5080653;28;20375;-80
2023/01/25 03:35:51;;;;;;;75.33;66.20;;;;;;;-0.89;100.00;103498.44;5081241;28;20064;-81
2023/01/25 03:38:18;;;;;;;77.83;69.30;;;;;;;-1.02;100.00;103499.94;5092317;28;20031;-85
2023/01/25 03:40:43;;;;;;;74.77;66.33;;;;;;;-0.96;100.00;103494.34;5097469;28;20346;-85
2023/01/25 03:43:09;;;;;;;76.63;68.23;;;;;;;-1.05;100.00;103497.41;5091840;28;20366;-85
2023/01/25 03:45:34;;;;;;;76.00;67.60;;;;;;;-0.96;100.00;103497.00;5097522;28;20478;-85
2023/01/25 03:47:59;;;;;;;79.57;69.57;;;;;;;-0.97;100.00;103497.94;5073650;28;20368;-85
2023/01/25 03:50:25;;;;;;;79.13;68.50;;;;;;;-1.00;100.00;103492.75;5094721;28;20032;-85
2023/01/25 03:52:57;;;;;;;78.33;69.73;;;;;;;-1.01;100.00;103491.00;5087088;28;20042;-85
2023/01/25 03:55:23;;;;;;;81.70;70.83;;;;;;;-1.03;100.00;103495.56;5081029;28;20563;-81
2023/01/25 03:57:48;;;;;;;81.20;71.57;;;;;;;-1.05;100.00;103498.31;5081099;28;20292;-81
2023/01/25 04:00:14;;;;;;;76.70;68.07;;;;;;;-1.03;100.00;103499.06;5082890;28;20128;-81
2023/01/25 04:02:39;;;;;;;82.13;72.03;;;;;;;-1.06;100.00;103504.53;5080906;28;20021;-81
2023/01/25 04:05:05;;;;;;;74.27;66.20;;;;;;;-1.09;100.00;103504.69;5064116;28;20059;-80
2023/01/25 04:07:32;;;;;;;78.50;69.87;;;;;;;-1.13;100.00;103499.56;5088638;28;20036;-81
2023/01/25 04:09:58;;;;;;;74.57;66.40;;;;;;;-1.03;100.00;103508.88;5079954;28;20392;-81
2023/01/25 04:12:23;;;;;;;77.60;68.90;;;;;;;-1.02;100.00;103495.47;5080636;28;20289;-81
2023/01/25 04:14:48;;;;;;;75.53;66.30;;;;;;;-0.98;100.00;103498.00;5091304;28;20491;-85
2023/01/25 04:17:14;;;;;;;75.07;66.77;;;;;;;-1.00;100.00;103489.25;5084266;28;20036;-81
2023/01/25 04:19:39;;;;;;;80.47;71.60;;;;;;;-1.05;100.00;103486.78;5064168;28;20036;-81
2023/01/25 04:22:04;;;;;;;86.77;74.40;;;;;;;-1.07;100.00;103478.00;5082243;28;20558;-81
2023/01/25 04:24:30;;;;;;;84.13;72.17;;;;;;;-1.09;100.00;103479.88;5080030;28;20035;-80
2023/01/25 04:26:55;;;;;;;80.63;69.03;;;;;;;-1.15;100.00;103472.19;5078860;28;20036;-80
2023/01/25 04:29:20;;;;;;;82.80;70.70;;;;;;;-1.17;100.00;103474.03;5047192;28;20028;-80
2023/01/25 04:31:46;;;;;;;89.87;76.10;;;;;;;-1.22;100.00;103474.25;5075838;28;20029;-85
2023/01/25 04:34:11;;;;;;;90.53;76.87;;;;;;;-1.26;100.00;103478.84;5089887;28;20036;-85
2023/01/25 04:36:36;;;;;;;94.10;78.10;;;;;;;-1.26;100.00;103473.50;5088969;28;20031;-85
2023/01/25 04:39:02;;;;;;;94.80;78.87;;;;;;;-1.24;100.00;103476.97;5082922;28;20088;-80
2023/01/25 04:41:28;;;;;;;95.47;79.07;;;;;;;-1.19;100.00;103479.41;5080880;28;20260;-80
2023/01/25 04:43:53;;;;;;;95.03;77.83;;;;;;;-1.23;100.00;103477.84;5085081;28;20036;-81
2023/01/25 04:46:19;;;;;;;93.10;77.03;;;;;;;-1.21;100.00;103473.28;5083921;28;20036;-80
2023/01/25 04:48:44;;;;;;;95.63;79.30;;;;;;;-1.28;100.00;103472.72;5100956;27;20085;-80
2023/01/25 04:51:10;;;;;;;95.97;79.53;;;;;;;-1.29;100.00;103467.47;5079105;28;20143;-80
2023/01/25 04:53:35;;;;;;;98.53;81.60;;;;;;;-1.29;100.00;103463.03;5094756;27;20038;-85
2023/01/25 04:56:01;;;;;;;99.63;82.07;;;;;;;-1.34;100.00;103458.84;5103502;28;20880;-85
2023/01/25 04:58:26;;;;;;;107.07;84.43;;;;;;;-1.40;100.00;103462.63;5084648;28;20035;-81
2023/01/25 05:00:52;;;;;;;103.30;83.17;;;;;;;-1.38;100.00;103460.78;5054842;28;20081;-81
2023/01/25 05:03:17;;;;;;;101.90;82.47;;;;;;;-1.34;100.00;103461.50;5101358;27;20419;-81
2023/01/25 05:05:46;;;;;;;105.37;83.30;;;;;;;-1.33;100.00;103464.09;5111261;28;20084;-85
2023/01/25 05:08:12;;;;;;;104.63;83.57;;;;;;;-1.25;100.00;103453.97;5114832;28;20102;-85
2023/01/25 05:10:37;;;;;;;104.80;83.13;;;;;;;-1.26;100.00;103449.56;5118940;28;20392;-85
2023/01/25 05:13:04;;;;;;;107.13;87.27;;;;;;;-1.30;100.00;103450.66;5107183;28;20114;-85
2023/01/25 05:15:30;;;;;;;110.57;87.10;;;;;;;-1.24;100.00;103449.50;5100603;28;20471;-85
2023/01/25 05:17:55;;;;;;;106.07;85.53;;;;;;;-1.31;100.00;103448.91;5113741;28;20306;-85
2023/01/25 05:20:21;;;;;;;107.90;85.17;;;;;;;-1.24;100.00;103449.50;5109197;28;20028;-85
2023/01/25 05:22:46;;;;;;;110.47;86.20;;;;;;;-1.29;100.00;103447.06;5107726;28;20055;-81
2023/01/25 05:26:59;;;;;;;107.67;84.07;;;;;;;-1.25;100.00;103446.00;5084637;28;20047;-80
2023/01/25 05:27:57;;;;;;;111.83;86.93;;;;;;;-1.28;100.00;103443.47;5103397;28;20076;-80
2023/01/25 05:30:22;;;;;;;110.77;85.57;;;;;;;-1.30;100.00;103442.66;5085545;28;20301;-81
2023/01/25 05:32:49;;;;;;;114.57;88.53;;;;;;;-1.33;100.00;103448.13;5088198;28;20191;-85
2023/01/25 05:35:14;;;;;;;111.40;86.73;;;;;;;-1.37;100.00;103438.56;5117629;28;20118;-85
2023/01/25 05:37:40;;;;;;;113.57;87.57;;;;;;;-1.31;100.00;103438.28;5090880;28;20903;-85
2023/01/25 05:40:06;;;;;;;112.50;87.97;;;;;;;-1.29;100.00;103433.75;5115273;28;20038;-85
2023/01/25 05:42:31;;;;;;;117.10;89.53;;;;;;;-1.36;100.00;103430.50;5095570;28;20031;-85
2023/01/25 05:44:56;;;;;;;109.47;85.50;;;;;;;-1.37;100.00;103434.09;5093554;28;20346;-85
2023/01/25 05:47:22;;;;;;;117.17;89.20;;;;;;;-1.30;100.00;103434.69;5113645;28;20035;-85
2023/01/25 05:49:47;;;;;;;116.03;88.23;;;;;;;-1.25;100.00;103438.00;5095627;28;20058;-85
2023/01/25 05:52:16;;;;;;;112.23;86.43;;;;;;;-1.30;100.00;103439.16;5091852;28;20415;-86
2023/01/25 05:54:42;;;;;;;118.37;90.23;;;;;;;-1.31;100.00;103438.28;5109460;28;20179;-85
2023/01/25 05:57:07;;;;;;;117.00;88.10;;;;;;;-1.27;100.00;103428.38;5112239;28;20293;-85
2023/01/25 05:59:32;;;;;;;114.10;88.87;;;;;;;-1.30;100.00;103424.03;5086338;28;20941;-85
2023/01/25 06:01:58;;;;;;;121.17;90.57;;;;;;;-1.32;100.00;103425.03;5108390;28;20039;-85
2023/01/25 06:04:23;;;;;;;115.07;86.97;;;;;;;-1.33;100.00;103431.28;5103459;28;20067;-86
2023/01/25 06:06:49;;;;;;;118.43;89.83;;;;;;;-1.35;100.00;103426.03;5105352;28;21826;-86
2023/01/25 06:09:15;;;;;;;117.17;89.47;;;;;;;-1.32;100.00;103433.91;5117167;27;20059;-85
2023/01/25 06:11:46;;;;;;;119.87;92.37;;;;;;;-1.34;100.00;103441.09;5109425;27;20106;-85
2023/01/25 06:14:11;;;;;;;121.07;90.50;;;;;;;-1.33;100.00;103434.84;5090952;28;20036;-85
2023/01/25 06:16:37;;;;;;;117.10;89.17;;;;;;;-1.32;100.00;103433.03;5116273;27;20307;-86
2023/01/25 06:19:05;;;;;;;118.13;90.70;;;;;;;-1.31;100.00;103437.41;5085878;27;20070;-85
2023/01/25 06:21:30;;;;;;;116.73;88.47;;;;;;;-1.28;100.00;103437.28;5112933;27;20032;-85
2023/01/25 06:23:55;;;;;;;122.73;91.27;;;;;;;-1.32;100.00;103433.91;5095778;27;20620;-85
2023/01/25 06:26:20;;;;;;;118.87;88.97;;;;;;;-1.22;100.00;103431.69;5082270;27;20038;-85
2023/01/25 06:28:46;;;;;;;117.77;89.30;;;;;;;-1.26;100.00;103425.63;5121224;27;20046;-85
2023/01/25 06:31:14;;;;;;;118.23;88.87;;;;;;;-1.22;100.00;103429.03;5120975;27;20070;-86
2023/01/25 06:33:40;;;;;;;118.27;89.63;;;;;;;-1.18;100.00;103433.28;5091835;27;20114;-81
2023/01/25 06:36:11;;;;;;;114.87;86.47;;;;;;;-1.18;100.00;103427.94;5088517;27;20320;-81
2023/01/25 06:38:36;;;;;;;122.83;91.73;;;;;;;-1.26;100.00;103425.63;5088592;27;20333;-81
2023/01/25 06:41:04;;;;;;;118.00;89.00;;;;;;;-1.30;100.00;103426.69;5090146;27;20796;-81
2023/01/25 06:43:31;;;;;;;118.30;90.80;;;;;;;-1.26;100.00;103427.44;5105906;27;20031;-81
2023/01/25 06:46:00;;;;;;;115.77;86.30;;;;;;;-1.22;100.00;103426.38;5107692;27;20285;-81
2023/01/25 06:48:27;;;;;;;114.40;86.80;;;;;;;-1.17;100.00;103426.13;5107133;27;20295;-81
2023/01/25 06:50:57;;;;;;;116.90;88.67;;;;;;;-1.20;100.00;103425.38;5090496;27;20300;-81
2023/01/25 06:53:25;;;;;;;113.77;86.60;;;;;;;-1.22;100.00;103426.38;5077612;27;20305;-81
2023/01/25 06:56:05;;;;;;;114.83;87.83;;;;;;;-1.26;100.00;103425.63;5110728;27;20296;-85
2023/01/25 06:58:32;;;;;;;114.17;86.43;;;;;;;-1.28;100.00;103423.97;5096021;28;20284;-85
2023/01/25 07:01:03;;;;;;;115.70;88.50;;;;;;;-1.31;100.00;103418.81;5116234;27;20333;-85
2023/01/25 07:03:30;;;;;;;117.63;88.53;;;;;;;-1.30;100.00;103424.03;5100162;27;20314;-85
2023/01/25 07:06:00;;;;;;;116.33;88.67;;;;;;;-1.32;100.00;103431.25;5099891;27;20346;-85
2023/01/25 07:08:26;;;;;;;117.33;86.77;;;;;;;-1.27;100.00;103423.03;5115320;27;20667;-85
2023/01/25 07:11:00;;;;;;;116.13;87.73;;;;;;;-1.32;100.00;103419.72;5117673;27;20302;-85
2023/01/25 07:13:27;;;;;;;116.37;87.90;;;;;;;-1.28;100.00;103421.31;5111737;27;20296;-85
2023/01/25 07:16:00;;;;;;;115.73;85.10;;;;;;;-1.33;100.00;103431.28;5112073;27;20300;-85
2023/01/25 07:18:27;;;;;;;115.23;85.93;;;;;;;-1.39;100.00;103428.00;5120290;27;20384;-85
2023/01/25 07:20:52;;;;;;;113.27;87.13;;;;;;;-1.45;100.00;103428.25;5118641;27;20299;-85
2023/01/25 07:23:19;;;;;;;116.60;87.00;;;;;;;-1.42;100.00;103429.94;5120211;27;21133;-85
2023/01/25 07:25:49;;;;;;;115.17;83.50;;;;;;;-1.39;100.00;103425.34;5092934;28;20084;-85
2023/01/25 07:28:16;;;;;;;116.77;87.43;;;;;;;-1.44;100.00;103422.03;5072198;27;20300;-81
2023/01/25 07:30:42;;;;;;;117.40;88.00;;;;;;;-1.41;100.00;103423.69;5085452;28;20293;-81
2023/01/25 07:33:10;;;;;;;111.10;83.20;;;;;;;-1.41;100.00;103415.72;5073417;27;21064;-81
2023/01/25 07:35:36;;;;;;;112.83;83.97;;;;;;;-1.40;100.00;103409.44;5086979;27;20294;-81
2023/01/25 07:38:02;;;;;;;112.33;87.13;;;;;;;-1.42;100.00;103409.50;5105976;27;20289;-81
2023/01/25 07:40:29;;;;;;;113.63;84.47;;;;;;;-1.41;100.00;103405.06;5104701;27;20036;-81
2023/01/25 07:42:54;;;;;;;113.17;85.47;;;;;;;-1.47;100.00;103400.91;5070736;27;20043;-80
2023/01/25 07:45:20;;;;;;;113.67;84.20;;;;;;;-1.43;100.00;103401.59;5084203;27;20887;-81
2023/01/25 07:47:46;;;;;;;119.70;87.00;;;;;;;-1.45;100.00;103409.66;5072941;27;20112;-80
2023/01/25 07:50:12;;;;;;;121.07;91.37;;;;;;;-1.56;100.00;103403.97;5076572;27;20123;-81
2023/01/25 07:52:37;;;;;;;122.57;89.23;;;;;;;-1.50;100.00;103400.16;5093453;27;21835;-81
2023/01/25 07:55:03;;;;;;;120.43;86.83;;;;;;;-1.52;100.00;103400.22;5084151;28;20040;-81
2023/01/25 07:57:28;;;;;;;126.10;91.10;;;;;;;-1.59;100.00;103404.97;5084949;28;20035;-80
2023/01/25 07:59:54;;;;;;;123.57;88.93;;;;;;;-1.62;100.00;103407.78;5084192;28;20038;-81
2023/01/25 08:02:20;;;;;;;120.57;87.93;;;;;;;-1.68;100.00;103408.03;5081543;28;20032;-81
2023/01/25 08:04:45;;;;;;;117.20;85.33;;;;;;;-1.67;100.00;103409.75;5084286;28;20483;-81
2023/01/25 08:07:12;;;;;;;118.57;87.43;;;;;;;-1.64;100.00;103404.28;5075777;28;20392;-86
2023/01/25 08:09:38;;;;;;;121.77;88.83;;;;;;;-1.68;100.00;103400.06;5100042;28;20035;-85
2023/01/25 08:12:03;;;;;;;126.30;90.53;;;;;;;-1.67;100.00;103403.56;5089626;28;20293;-85
2023/01/25 08:14:29;;;;;;;120.63;86.00;;;;;;;-1.55;100.00;103397.69;5094227;27;20057;-86
2023/01/25 08:16:54;;;;;;;120.23;86.60;;;;;;;-1.50;100.00;103394.84;5093995;28;20121;-85
2023/01/25 08:19:21;;;;;;;122.20;89.23;;;;;;;-1.53;100.00;103395.84;5100425;28;20077;-85
2023/01/25 08:21:46;;;;;;;124.43;88.37;;;;;;;-1.53;100.00;103399.34;5091226;28;20063;-86
2023/01/25 08:24:12;;;;;;;121.20;88.33;;;;;;;-1.59;100.00;103396.09;5094835;28;20812;-86
2023/01/25 08:26:37;;;;;;;123.30;87.97;;;;;;;-1.55;100.00;103393.25;5085565;28;20110;-85
2023/01/25 08:29:04;;;;;;;117.93;86.70;;;;;;;-1.59;100.00;103390.78;5085011;28;20057;-81
2023/01/25 08:31:32;;;;;;;120.80;90.07;;;;;;;-1.68;100.00;103397.41;5099447;27;20395;-81
2023/01/25 08:33:58;;;;;;;123.07;87.10;;;;;;;-1.63;100.00;103390.09;5083113;28;20285;-81
2023/01/25 08:36:23;;;;;;;120.10;86.57;;;;;;;-1.54;100.00;103380.81;5084137;28;20285;-81
2023/01/25 08:38:56;;;;;;;119.07;87.13;;;;;;;-1.47;100.00;103389.38;5085415;28;20285;-81
2023/01/25 08:41:22;;;;;;;125.37;87.20;;;;;;;-1.43;100.00;103385.63;5087638;28;20032;-86
2023/01/25 08:43:48;;;;;;;120.70;87.40;;;;;;;-1.40;100.00;103383.72;5096568;28;20375;-86
2023/01/25 08:46:15;;;;;;;115.83;83.33;;;;;;;-1.35;100.00;103386.16;5094338;28;20425;-85
2023/01/25 08:48:41;;;;;;;119.03;85.00;;;;;;;-1.42;100.00;103385.56;5096137;28;20488;-86
2023/01/25 08:51:15;;;;;;;113.43;81.47;;;;;;;-1.29;100.00;103393.84;5092237;28;20301;-86
2023/01/25 08:53:41;;;;;;;115.50;82.65;;;;;;;-1.30;100.00;103391.28;5087684;28;20047;-86
2023/01/25 08:56:08;;;;;;;112.97;81.57;;;;;;;-1.35;100.00;103380.84;5092164;28;20036;-86
2023/01/25 08:58:37;;;;;;;115.93;84.47;;;;;;;-1.34;100.00;103376.38;5087895;28;20036;-86
2023/01/25 09:01:04;;;;;;;113.97;83.67;;;;;;;-1.39;100.00;103368.59;5087254;28;20381;-86
2023/01/25 09:03:30;;;;;;;113.13;85.03;;;;;;;-1.54;100.00;103376.38;5088167;28;20318;-86
2023/01/25 09:05:56;;;;;;;116.23;83.70;;;;;;;-1.43;100.00;103365.25;5091099;28;20362;-86
2023/01/25 09:08:21;;;;;;;118.07;83.70;;;;;;;-1.43;100.00;103364.38;5095434;28;20063;-85
2023/01/25 09:10:46;;;;;;;118.43;85.53;;;;;;;-1.45;100.00;103360.94;5092911;28;20552;-85
2023/01/25 09:13:13;;;;;;;120.20;85.00;;;;;;;-1.40;100.00;103364.22;5092465;28;20032;-85
2023/01/25 09:15:39;;;;;;;117.03;84.60;;;;;;;-1.44;100.00;103363.50;5091177;28;20024;-86
2023/01/25 09:18:04;;;;;;;116.03;83.57;;;;;;;-1.45;100.00;103363.59;5094000;28;20281;-86
2023/01/25 09:20:29;;;;;;;119.43;85.43;;;;;;;-1.30;100.00;103360.22;5097701;28;20518;-86
2023/01/25 09:22:55;;;;;;;116.87;85.03;;;;;;;-1.46;100.00;103354.72;5088392;28;20122;-86
2023/01/25 09:25:21;;;;;;;116.00;84.43;;;;;;;-1.46;100.00;103364.50;5092325;28;20032;-85
2023/01/25 09:27:54;;;;;;;116.87;85.07;;;;;;;-1.47;100.00;103357.47;5089334;28;20035;-85
2023/01/25 09:30:19;;;;;;;118.20;85.17;;;;;;;-1.46;100.00;103362.72;5093296;28;20100;-86
2023/01/25 09:32:48;;;;;;;117.77;85.60;;;;;;;-1.50;100.00;103358.47;5086692;28;20385;-86
2023/01/25 09:35:13;;;;;;;116.47;83.90;;;;;;;-1.51;100.00;103363.84;5089973;28;20030;-86
2023/01/25 09:37:39;;;;;;;117.93;83.43;;;;;;;-1.47;100.00;103354.81;5095124;28;20296;-86
2023/01/25 09:40:06;;;;;;;115.37;83.07;;;;;;;-1.49;100.00;103360.19;5090936;28;20132;-81
2023/01/25 09:42:37;;;;;;;114.63;81.30;;;;;;;-1.47;100.00;103358.34;5085356;28;20040;-81
2023/01/25 09:45:02;;;;;;;122.67;85.33;;;;;;;-1.49;100.00;103360.19;5085574;28;20301;-81
2023/01/25 09:47:37;;;;;;;112.07;81.87;;;;;;;-1.43;100.00;103353.72;5088234;28;20392;-81
2023/01/25 09:50:30;;;;;;;121.10;85.28;;;;;;;-1.38;100.00;103357.03;5085365;28;20360;-81
2023/01/25 09:53:20;;;;;;;116.73;84.27;;;;;;;-1.40;100.00;103353.56;5074212;28;20059;-81
2023/01/25 09:55:52;;;;;;;119.73;86.00;;;;;;;-1.46;100.00;103352.06;5083995;28;20905;-81
2023/01/25 09:58:20;;;;;;;119.67;86.53;;;;;;;-1.44;100.00;103352.00;5085507;28;20305;-81
2023/01/25 10:00:50;;;;;;;120.57;85.13;;;;;;;-1.54;100.00;103351.56;5084143;28;20412;-81
2023/01/25 10:03:33;;;;;;;123.27;85.60;;;;;;;-1.53;100.00;103359.47;5083255;28;20288;-81
2023/01/25 10:06:01;;;;;;;121.50;85.70;;;;;;;-1.55;100.00;103356.03;5087983;28;20740;-81
2023/01/25 10:09:02;;;;;;;124.23;86.37;;;;;;;-1.49;100.00;103349.56;5083670;28;20337;-81
2023/01/25 10:11:32;;;;;;;119.63;85.67;;;;;;;-1.45;100.00;103351.16;5039698;28;20377;-80
2023/01/25 10:13:58;;;;;;;116.20;82.83;;;;;;;-1.41;100.00;103346.56;5076639;28;20289;-80
2023/01/25 10:16:45;;;;;;;117.53;84.83;;;;;;;-1.43;100.00;103340.44;5079594;28;20434;-80
2023/01/25 10:19:22;;;;;;;114.73;81.57;;;;;;;-1.40;100.00;103335.84;5078158;28;20294;-80
2023/01/25 10:21:54;;;;;;;118.50;84.03;;;;;;;-1.36;100.00;103332.09;5087502;28;20305;-85
2023/01/25 10:24:38;;;;;;;114.20;80.93;;;;;;;-1.32;100.00;103340.81;5086712;28;20377;-86
2023/01/25 10:27:29;;;;;;;113.90;81.27;;;;;;;-1.36;100.00;103337.44;5087478;28;20288;-86
2023/01/25 10:29:58;;;;;;;117.73;83.23;;;;;;;-1.43;100.00;103332.44;5083038;28;20282;-81
2023/01/25 10:32:33;;;;;;;117.10;83.67;;;;;;;-1.48;100.00;103334.47;5080423;28;20282;-81
2023/01/25 10:35:14;;;;;;;116.90;84.57;;;;;;;-1.57;100.00;103328.63;5080833;28;20285;-81
2023/01/25 10:37:40;;;;;;;116.83;83.23;;;;;;;-1.43;100.00;103314.72;5080166;28;20813;-81
2023/01/25 10:40:20;;;;;;;117.67;84.07;;;;;;;-1.33;100.00;103314.25;5079744;28;20335;-81
2023/01/25 10:43:01;;;;;;;114.87;81.20;;;;;;;-1.44;100.00;103309.44;5078907;28;20286;-81
2023/01/25 10:45:26;;;;;;;113.40;80.23;;;;;;;-1.43;100.00;103292.56;5079580;28;20368;-81
2023/01/25 10:47:56;;;;;;;112.17;79.83;;;;;;;-1.46;100.00;103293.56;5078898;28;20290;-81
2023/01/25 10:50:37;;;;;;;113.20;81.40;;;;;;;-1.42;100.00;103291.63;5076539;28;20020;-81
2023/01/25 10:53:02;;;;;;;111.77;81.53;;;;;;;-1.45;100.00;103283.81;5076197;28;20298;-81
2023/01/25 10:55:28;;;;;;;111.53;79.40;;;;;;;-1.48;100.00;103284.81;5051772;28;20302;-81
2023/01/25 10:57:58;;;;;;;113.33;79.53;;;;;;;-1.49;100.00;103274.25;5076736;28;20040;-81
2023/01/25 11:00:27;;;;;;;112.80;80.30;;;;;;;-1.46;100.00;103269.63;5077971;28;20028;-81